Highlands Peak, California Weather observations

Data are for observation ending at time listed.
 Day   Time    Ave.   Ave.  Ave.  Vector   Max.   Stn.    Total    Solar   Ave.  
  of    of     Air    Rel.  Wind   Wind    Wind   Baro.  Precip.   Rad.    Soil  
Year   Day     Temp.  Hum.  Speed  Dir.    Gust   Pres.                    Temp. 
2026   (PST)    F      %     mph   deg.    mph     mb.     in.     W/m2     F   
------------------------------------------------------------------------------
 248   14:40   68.8    45    7.8   247     12.0   929.0    0.00     688    76.4
 248   14:50   69.2    44    7.0   243     13.3   928.9    0.00     664    76.6
 248   15:00   68.6    44    7.9   244     12.3   928.8    0.00     638    77.0
 248   15:10   68.5    45    7.6   244     10.5   928.7    0.00     610    77.3
 248   15:20   69.3    44    7.1   241     10.4   928.6    0.00     580    77.6
 248   15:30   68.8    44    6.8   242     10.4   928.6    0.00     548    77.8
 248   15:40   68.7    44    6.9   242      9.8   928.6    0.00     519    78.1
 248   15:50   68.5    45    6.5   232      9.8   928.5    0.00     488    78.4
 248   16:00   68.9    45    7.0   225     10.6   928.5    0.00     455    78.6
 248   16:10   69.1    43    6.7   224     11.1   928.5    0.00     420    78.9
 248   16:20   69.8    43    6.2   222     10.9   928.5    0.00     386    79.0
 248   16:30   68.6    44    7.2   233     10.0   928.6    0.00     351    79.3
 248   16:40   68.4    45    6.4   234      9.7   928.6    0.00     316    79.4
 248   16:50   68.8    45    6.1   232      9.9   928.5    0.00     277    79.5
 248   17:00   68.5    45    7.1   238     10.9   928.5    0.00     245    79.7
 248   17:10   67.9    47    7.3   238     10.2   928.4    0.00     211    79.9
 248   17:20   67.8    48    6.4   235      9.5   928.4    0.00     178    80.0
 248   17:30   67.6    49    6.0   241      8.7   928.3    0.00     146    80.1
 248   17:40   67.2    49    5.2   233      8.1   928.3    0.00     118    80.1
 248   17:50   66.8    49    5.5   243      8.0   928.2    0.00      91    80.1
 248   18:00   66.7    50    4.0   243      6.2   928.2    0.00      67    80.1
 248   18:10   66.0    50    3.9   262      5.6   928.2    0.00      45    80.1
 248   18:20   65.3    51    2.8   253      5.1   928.2    0.00      25    80.1
 248   18:30   64.2    52    2.8   270      4.3   928.2    0.00      10    80.1
 248   18:40   63.3    53    3.1   282      3.8   928.2    0.00       3    80.1
 248   18:50   62.2    54    3.1   295      3.9   928.2    0.00       1    80.2
 248   19:00   62.6    55    2.6   301      3.4   928.2    0.00       0    80.2
 248   19:10   63.3    54    2.2   319      2.6   928.2    0.00       0    80.1
 248   19:20   63.4    54    2.6   321      3.2   928.2    0.00       0    80.1
 248   19:30   63.7    54    2.7   320      3.9   928.3    0.00       0    80.1
 248   19:40   63.7    56    2.6   316      3.4   928.4    0.00       0    80.0
 248   19:50   63.6    57    2.8   308      4.5   928.4    0.00       0    79.9
 248   20:00   63.5    58    2.2   308      4.2   928.5    0.00       0    79.9
 248   20:10   63.6    57    3.0   304      3.9   928.6    0.00       0    79.8
 248   20:20   63.5    57    2.9   301      4.4   928.7    0.00       0    79.8
 248   20:30   63.7    57    2.5   306      3.5   928.8    0.00       0    79.7
 248   20:40   63.6    58    2.1   305      4.1   928.8    0.00       0    79.6
 248   20:50   63.8    58    2.6   291      5.0   928.8    0.00       0    79.6
 248   21:00   63.1    59    3.7   278      5.0   928.9    0.00       0    79.5
 248   21:10   63.1    58    2.2   295      3.1   928.9    0.00       0    79.4
 248   21:20   63.4    57    2.7   280      3.7   928.9    0.00       0    79.3
 248   21:30   63.3    56    2.7   280      3.4   928.8    0.00       0    79.2
 248   21:40   63.7    55    2.5   298      3.9   928.8    0.00       0    79.1
 248   21:50   63.9    54    3.2   291      4.4   928.8    0.00       0    79.0
 248   22:00   63.6    55    2.6   292      3.5   928.7    0.00       0    78.9
 248   22:10   63.8    54    2.2   348      3.7   928.7    0.00       0    78.9
 248   22:20   63.9    54    1.9    18      3.3   928.8    0.00       0    78.8
 248   22:30   64.1    53    1.4    25      1.9   928.8    0.00       0    78.7
 248   22:40   64.1    53    1.5    69      1.8   928.7    0.00       0    78.6
 248   22:50   63.7    53    2.6    54      3.8   928.7    0.00       0    78.6
 248   23:00   63.7    52    2.7    61      3.4   928.7    0.00       0    78.5
 248   23:10   64.0    52    2.5    79      4.6   928.7    0.00       0    78.4
 248   23:20   64.1    52    3.8    80      4.8   928.7    0.00       0    78.3
 248   23:30   64.0    52    2.5    64      3.5   928.7    0.00       0    78.2
 248   23:40   64.0    52    2.0    72      3.1   928.6    0.00       0    78.1
 248   23:50   63.8    52    1.0    55      2.9   928.6    0.00       0    78.0
 249    0:00   63.1    52    3.8     2      6.3   928.6    0.00       0    77.8
 249    0:10   62.7    52    3.7     5      6.1   928.6    0.00       0    77.7
 249    0:20   63.6    50    2.1   347      3.1   928.6    0.00       0    77.5
 249    0:30   63.1    50    3.9   342      6.4   928.5    0.00       0    77.3
 249    0:40   62.4    51    3.9    13      5.6   928.5    0.00       0    77.3
 249    0:50   62.7    51    2.2    11      4.5   928.5    0.00       0    77.2
 249    1:00   62.2    51    2.2    13      4.1   928.5    0.00       0    77.1
 249    1:10   62.6    51    0.7    35      1.3   928.4    0.00       0    77.0
 249    1:20   62.9    51    0.4   347      1.3   928.7    0.00       0    77.0
 249    1:30   62.5    51    0.5    40      1.6   928.6    0.00       0    76.9
 249    1:40   62.4    52    1.2    10      3.1   928.6    0.00       0    76.8
 249    1:50   62.4    51    2.2   349      3.5   928.6    0.00       0    76.6
 249    2:00   62.1    51    3.5    26      4.7   928.6    0.00       0    76.6
 249    2:10   61.8    52    4.0    39      5.2   928.5    0.00       0    76.5
 249    2:20   62.0    52    2.9    33      4.3   928.4    0.00       0    76.4
 249    2:30   62.2    52    2.4   265      4.2   928.5    0.00       0    76.2
 249    2:40   61.4    54    2.5   337      5.0   928.6    0.00       0    76.1
 249    2:50   61.4    52    2.5    14      3.8   928.6    0.00       0    76.0
 249    3:00   61.5    52    2.6     2      3.8   928.6    0.00       0    75.9
 249    3:10   61.4    53    3.9   344      4.7   928.5    0.00       0    75.8
 249    3:20   61.0    54    3.5     8      4.5   928.5    0.00       0    75.7
 249    3:30   60.9    54    3.4     7      5.4   928.6    0.00       0    75.6
 249    3:40   60.9    54    3.2    16      4.5   928.5    0.00       0    75.5
 249    3:50   61.2    54    2.7    16      3.9   928.6    0.00       0    75.4
 249    4:00   61.5    54    2.4    32      3.8   928.6    0.00       0    75.3
 249    4:10   62.0    53    1.7    48      2.3   928.6    0.00       0    75.2
 249    4:20   61.6    54    1.4    60      3.0   928.6    0.00       0    75.2
 249    4:30   61.8    54    1.0    92      1.6   928.7    0.00       0    75.1
 249    4:40   62.0    54    1.1    88      1.6   928.7    0.00       0    75.0
 249    4:50   62.0    54    1.0   140      1.2   928.7    0.00       0    74.9
 249    5:00   61.6    55    0.2   134      0.9   928.7    0.00       0    74.8
 249    5:10   61.5    55    0.5   131      1.5   928.7    0.00       0    74.7
 249    5:20   61.6    55    1.0   195      1.8   928.8    0.00       0    74.6
 249    5:30   61.5    57    1.1   175      2.2   928.8    0.00       1    74.4
 249    5:40   61.3    57    1.0   128      1.9   928.8    0.00       2    74.4
 249    5:50   61.1    56    0.9    43      1.7   928.8    0.00       5    74.3
 249    6:00   60.9    58    0.0     0      0.0   928.9    0.00       9    74.2
 249    6:10   60.7    57    1.3     7      2.6   929.0    0.00      12    74.1
 249    6:20   60.5    56    2.4    25      4.2   929.1    0.00      14    74.0
 249    6:30   60.9    56    2.0    33      2.9   929.2    0.00      53    73.9
 249    6:40   63.1    52    1.7    23      3.0   929.3    0.00     148    73.8
 249    6:50   64.0    51    0.9   343      1.4   929.4    0.00     206    73.6
 249    7:00   64.3    50    0.1   340      0.7   929.4    0.00     243    73.5
 249    7:10   64.1    51    1.1   239      1.7   929.5    0.00     279    73.2
 249    7:20   63.8    52    0.9   240      1.6   929.5    0.00     316    73.0
 249    7:30   64.4    51    0.3   321      2.8   929.6    0.00     353    72.9
 249    7:40   64.7    51    1.2   257      2.2   929.6    0.00     389    72.7
 249    7:50   64.9    51    0.8   197      1.8   929.5    0.00     425    72.6
 249    8:00   65.0    51    1.1   226      2.3   929.6    0.00     460    72.4
 249    8:10   65.3    50    1.9   217      3.1   929.6    0.00     494    72.3
 249    8:20   64.7    51    2.3   220      4.7   929.6    0.00     528    72.2
 249    8:30   64.5    52    1.8   225      2.8   929.6    0.00     561    72.1
 249    8:40   65.0    51    0.9   222      2.0   929.6    0.00     591    72.0
 249    8:50   66.0    48    2.1   224      4.4   929.6    0.00     624    72.0
 249    9:00   65.6    51    3.5   225      4.6   929.6    0.00     655    71.9
 249    9:10   65.3    52    3.1   226      5.0   929.7    0.00     681    71.8
 249    9:20   65.4    52    3.2   225      5.0   929.7    0.00     707    71.8
 249    9:30   65.3    53    4.2   232      6.6   929.9    0.00     730    71.7
 249    9:40   65.4    52    3.0   234      5.4   929.9    0.00     751    71.8
 249    9:50   66.2    50    2.8   226      5.9   930.0    0.00     771    71.8
 249   10:00   67.0    48    3.4   219      5.3   930.1    0.00     793    71.8
 249   10:10   68.1    47    3.3   217      6.9   930.1    0.00     811    71.9
 249   10:20   68.1    48    5.7   223      8.8   930.1    0.00     825    71.9
 249   10:30   67.7    47    5.7   224      9.1   930.1    0.00     839    71.9
 249   10:40   68.0    47    6.4   224      8.9   930.2    0.00     853    72.0
 249   10:50   67.7    45    5.6   227      8.6   930.3    0.00     864    72.0
 249   11:00   68.1    44    6.1   221      9.3   930.3    0.00     876    72.0
 249   11:10   68.7    42    6.8   233     10.1   930.3    0.00     885    72.1
 249   11:20   68.1    38    7.1   220     11.5   930.3    0.00     892    72.1
 249   11:30   68.4    38    6.5   222     10.1   930.2    0.00     899    72.1
 249   11:40   68.5    39    6.1   244     10.5   930.1    0.00     903    72.2
 249   11:50   68.0    39    6.3   244     11.3   930.1    0.00     904    72.3
 249   12:00   68.6    37    6.7   243     10.6   930.0    0.00     904    72.4
 249   12:10   69.2    36    6.6   226      9.7   929.9    0.00     905    72.5
 249   12:20   69.2    35    7.9   222     12.9   929.9    0.00     903    72.6
 249   12:30   69.1    35    8.2   226     11.4   929.9    0.00     898    72.8
 249   12:40   69.0    34    7.9   234     11.5   929.9    0.00     892    72.9
 249   12:50   69.1    33    8.1   240     12.3   929.8    0.00     885    73.1
 249   13:00   69.6    32    8.6   230     12.6   929.7    0.00     876    73.3
 249   13:10   69.7    32    7.8   241     13.4   929.6    0.00     864    73.5
 249   13:20   68.9    32    8.6   243     13.6   929.6    0.00     851    73.8
 249   13:30   69.5    31    8.1   231     12.9   929.5    0.00     838    74.1
 249   13:40   70.0    31    7.7   232     12.4   929.5    0.00     822    74.3
 249   13:50   70.0    31    8.7   239     12.6   929.4    0.00     805    74.5
 249   14:00   69.7    32    8.4   242     12.8   929.4    0.00     784    74.9
 249   14:10   70.0    31    8.7   243     13.2   929.4    0.00     746    75.3
 249   14:20   69.8    32    8.0   238     13.9   929.4    0.00     724    75.6
 249   14:30   69.6    31    7.7   250     12.5   929.3    0.00     713    75.9

Return to Highlands Peak graphs page.


Western Regional Climate Center,wrcc@dri.edu